Accueil
METAR-TAF:

METAR-TAF

Aéroports :

Aéroport de Milan Malpensa

Milan, Italie

latitude: 45-37N, longitude: 008-44E, altitude: 234 m

Observation

Le bulletin a été fait il y a 13 minutes, à 22:50 UTC
Vent 2 kt de direction variable
Température 23°C
Humidité 69%
Pression 1016 hPa
Visibilité 10 km ou plus
Quelques nuages à une hauteur de 6000 ft

METAR: LIMC 172250Z VRB02KT 9999 FEW060 23/17 Q1016 NOSIG

Heure: 01:03 (23:03 UTC)

Prévision

Le bulletin a été fait il y a 6 heures et 3 minutes, à 17:00 UTC
Prévision valable du 17 à 18 UTC au 18 à 24 UTC
Vent 5 kt de direction variable
Visibilité 10 km ou plus
pas de nuages en-dessous de 1500 mètres et pas de cumulonimbus.

TAF: LIMC 171700Z 1718/1824 VRB05KT CAVOK

Observations et prévisions météorologiques de plus de 4000 aéroports (messages METAR et TAF).

Les stations disponibles sont représentées par des disques jaunes et rouges sur la carte.

Passer la souris dessus pour voir le nom de la station.

Cliquer dessus pour voir les observations et prévisions météorologiques.

Pour changer de carte: cliquez sur les boutons verts avec une croix noire pour zoomer, sur le bouton vert avec un tiret pour effectuer un zoom arrière, ou sur les flèches vertes pour les cartes adjacentes.


METAR-TAF: